sensor_id;sensor_type;location;lat;lon;timestamp;temperature;humidity
18103;DHT22;9178;51.120;6.192;2022-09-01T00:01:25;17.10;99.90
18103;DHT22;9178;51.120;6.192;2022-09-01T00:03:54;17.00;99.90
18103;DHT22;9178;51.120;6.192;2022-09-01T00:06:26;17.00;99.90
18103;DHT22;9178;51.120;6.192;2022-09-01T00:08:54;16.90;99.90
18103;DHT22;9178;51.120;6.192;2022-09-01T00:11:23;16.90;99.90
18103;DHT22;9178;51.120;6.192;2022-09-01T00:13:52;16.90;99.90
18103;DHT22;9178;51.120;6.192;2022-09-01T00:16:20;16.90;99.90
18103;DHT22;9178;51.120;6.192;2022-09-01T00:18:49;16.80;99.90
18103;DHT22;9178;51.120;6.192;2022-09-01T00:21:18;16.80;99.90
18103;DHT22;9178;51.120;6.192;2022-09-01T00:23:46;16.80;99.90
18103;DHT22;9178;51.120;6.192;2022-09-01T00:26:14;16.80;99.90
18103;DHT22;9178;51.120;6.192;2022-09-01T00:28:42;16.80;99.90
18103;DHT22;9178;51.120;6.192;2022-09-01T00:31:09;16.80;99.90
18103;DHT22;9178;51.120;6.192;2022-09-01T00:33:37;16.80;99.90
18103;DHT22;9178;51.120;6.192;2022-09-01T00:36:07;16.80;99.90
18103;DHT22;9178;51.120;6.192;2022-09-01T00:38:35;16.80;99.90
18103;DHT22;9178;51.120;6.192;2022-09-01T00:41:04;16.70;99.90
18103;DHT22;9178;51.120;6.192;2022-09-01T00:43:38;16.70;99.90
18103;DHT22;9178;51.120;6.192;2022-09-01T00:46:07;16.70;99.90
18103;DHT22;9178;51.120;6.192;2022-09-01T00:48:35;16.70;99.90
18103;DHT22;9178;51.120;6.192;2022-09-01T00:51:02;16.70;99.90
18103;DHT22;9178;51.120;6.192;2022-09-01T00:53:30;16.70;99.90
18103;DHT22;9178;51.120;6.192;2022-09-01T00:55:58;16.70;99.90
18103;DHT22;9178;51.120;6.192;2022-09-01T00:58:29;16.60;99.90
18103;DHT22;9178;51.120;6.192;2022-09-01T01:00:56;16.60;99.90
18103;DHT22;9178;51.120;6.192;2022-09-01T01:03:27;16.60;99.90
18103;DHT22;9178;51.120;6.192;2022-09-01T01:05:57;16.60;99.90
18103;DHT22;9178;51.120;6.192;2022-09-01T01:08:31;16.50;99.90
18103;DHT22;9178;51.120;6.192;2022-09-01T01:10:59;16.50;99.90
18103;DHT22;9178;51.120;6.192;2022-09-01T01:13:28;16.50;99.90
18103;DHT22;9178;51.120;6.192;2022-09-01T01:15:59;16.40;99.90
18103;DHT22;9178;51.120;6.192;2022-09-01T01:18:27;16.40;99.90
18103;DHT22;9178;51.120;6.192;2022-09-01T01:20:59;16.30;99.90
18103;DHT22;9178;51.120;6.192;2022-09-01T01:23:50;16.20;99.90
18103;DHT22;9178;51.120;6.192;2022-09-01T01:26:24;16.20;99.90
18103;DHT22;9178;51.120;6.192;2022-09-01T01:28:51;16.20;99.90
18103;DHT22;9178;51.120;6.192;2022-09-01T01:31:20;16.10;99.90
18103;DHT22;9178;51.120;6.192;2022-09-01T01:33:50;16.10;99.90
18103;DHT22;9178;51.120;6.192;2022-09-01T01:36:22;16.00;99.90
18103;DHT22;9178;51.120;6.192;2022-09-01T01:38:58;16.00;99.90
18103;DHT22;9178;51.120;6.192;2022-09-01T01:41:33;16.00;99.90
18103;DHT22;9178;51.120;6.192;2022-09-01T01:44:02;16.00;99.90
18103;DHT22;9178;51.120;6.192;2022-09-01T01:46:30;15.90;99.90
18103;DHT22;9178;51.120;6.192;2022-09-01T01:48:58;15.90;99.90
18103;DHT22;9178;51.120;6.192;2022-09-01T01:51:29;15.90;99.90
18103;DHT22;9178;51.120;6.192;2022-09-01T01:53:58;15.90;99.90
18103;DHT22;9178;51.120;6.192;2022-09-01T01:56:32;15.80;99.90
18103;DHT22;9178;51.120;6.192;2022-09-01T01:59:02;15.80;99.90
18103;DHT22;9178;51.120;6.192;2022-09-01T02:01:30;15.80;99.90
18103;DHT22;9178;51.120;6.192;2022-09-01T02:04:00;15.70;99.90
18103;DHT22;9178;51.120;6.192;2022-09-01T02:06:32;15.70;99.90
18103;DHT22;9178;51.120;6.192;2022-09-01T02:09:00;15.60;99.90
18103;DHT22;9178;51.120;6.192;2022-09-01T02:11:28;15.60;99.90
18103;DHT22;9178;51.120;6.192;2022-09-01T02:14:00;15.60;99.90
18103;DHT22;9178;51.120;6.192;2022-09-01T02:16:30;15.50;99.90
18103;DHT22;9178;51.120;6.192;2022-09-01T02:18:58;15.40;99.90
18103;DHT22;9178;51.120;6.192;2022-09-01T02:21:27;15.40;99.90
18103;DHT22;9178;51.120;6.192;2022-09-01T02:23:55;15.40;99.90
18103;DHT22;9178;51.120;6.192;2022-09-01T02:26:26;15.30;99.90
18103;DHT22;9178;51.120;6.192;2022-09-01T02:28:58;15.30;99.90
18103;DHT22;9178;51.120;6.192;2022-09-01T02:31:29;15.20;99.90
18103;DHT22;9178;51.120;6.192;2022-09-01T02:33:57;15.20;99.90
18103;DHT22;9178;51.120;6.192;2022-09-01T02:36:25;15.20;99.90
18103;DHT22;9178;51.120;6.192;2022-09-01T02:38:53;15.10;99.90
18103;DHT22;9178;51.120;6.192;2022-09-01T02:41:21;15.10;99.90
18103;DHT22;9178;51.120;6.192;2022-09-01T02:43:48;15.10;99.90
18103;DHT22;9178;51.120;6.192;2022-09-01T02:46:17;15.00;99.90
18103;DHT22;9178;51.120;6.192;2022-09-01T02:48:48;15.00;99.90
18103;DHT22;9178;51.120;6.192;2022-09-01T02:51:18;15.00;99.90
18103;DHT22;9178;51.120;6.192;2022-09-01T02:53:46;15.00;99.90
18103;DHT22;9178;51.120;6.192;2022-09-01T02:56:17;14.90;99.90
18103;DHT22;9178;51.120;6.192;2022-09-01T02:58:48;14.90;99.90
18103;DHT22;9178;51.120;6.192;2022-09-01T03:01:20;14.90;99.90
18103;DHT22;9178;51.120;6.192;2022-09-01T03:03:50;14.90;99.90
18103;DHT22;9178;51.120;6.192;2022-09-01T03:06:17;14.80;99.90
18103;DHT22;9178;51.120;6.192;2022-09-01T03:08:45;14.80;99.90
18103;DHT22;9178;51.120;6.192;2022-09-01T03:11:12;14.80;99.90
18103;DHT22;9178;51.120;6.192;2022-09-01T03:13:40;14.80;99.90
18103;DHT22;9178;51.120;6.192;2022-09-01T03:16:07;14.70;99.90
18103;DHT22;9178;51.120;6.192;2022-09-01T03:18:37;14.70;99.90
18103;DHT22;9178;51.120;6.192;2022-09-01T03:21:05;14.70;99.90
18103;DHT22;9178;51.120;6.192;2022-09-01T03:23:33;14.70;99.90
18103;DHT22;9178;51.120;6.192;2022-09-01T03:26:00;14.60;99.90
18103;DHT22;9178;51.120;6.192;2022-09-01T03:28:27;14.60;99.90
18103;DHT22;9178;51.120;6.192;2022-09-01T03:30:56;14.60;99.90
18103;DHT22;9178;51.120;6.192;2022-09-01T03:33:25;14.50;99.90
18103;DHT22;9178;51.120;6.192;2022-09-01T03:35:54;14.50;99.90
18103;DHT22;9178;51.120;6.192;2022-09-01T03:38:22;14.50;99.90
18103;DHT22;9178;51.120;6.192;2022-09-01T03:40:51;14.50;99.90
18103;DHT22;9178;51.120;6.192;2022-09-01T03:43:19;14.50;99.90
18103;DHT22;9178;51.120;6.192;2022-09-01T03:45:48;14.40;99.90
18103;DHT22;9178;51.120;6.192;2022-09-01T03:48:15;14.40;99.90
18103;DHT22;9178;51.120;6.192;2022-09-01T03:50:43;14.40;99.90
18103;DHT22;9178;51.120;6.192;2022-09-01T03:53:14;14.40;99.90
18103;DHT22;9178;51.120;6.192;2022-09-01T03:55:43;14.40;99.90
18103;DHT22;9178;51.120;6.192;2022-09-01T03:58:11;14.40;99.90
18103;DHT22;9178;51.120;6.192;2022-09-01T04:00:41;14.40;99.90
18103;DHT22;9178;51.120;6.192;2022-09-01T04:03:10;14.30;99.90
18103;DHT22;9178;51.120;6.192;2022-09-01T04:05:41;14.30;99.90
18103;DHT22;9178;51.120;6.192;2022-09-01T04:08:09;14.30;99.90
18103;DHT22;9178;51.120;6.192;2022-09-01T04:10:42;14.30;99.90
18103;DHT22;9178;51.120;6.192;2022-09-01T04:13:15;14.30;99.90
18103;DHT22;9178;51.120;6.192;2022-09-01T04:15:42;14.20;99.90
18103;DHT22;9178;51.120;6.192;2022-09-01T04:18:08;14.20;99.90
18103;DHT22;9178;51.120;6.192;2022-09-01T04:20:36;14.20;99.90
18103;DHT22;9178;51.120;6.192;2022-09-01T04:23:14;14.20;99.90
18103;DHT22;9178;51.120;6.192;2022-09-01T04:25:49;14.10;99.90
18103;DHT22;9178;51.120;6.192;2022-09-01T04:28:16;14.20;99.90
18103;DHT22;9178;51.120;6.192;2022-09-01T04:30:50;14.10;99.90
18103;DHT22;9178;51.120;6.192;2022-09-01T04:33:20;14.10;99.90
18103;DHT22;9178;51.120;6.192;2022-09-01T04:35:47;14.10;99.90
18103;DHT22;9178;51.120;6.192;2022-09-01T04:38:15;14.10;99.90
18103;DHT22;9178;51.120;6.192;2022-09-01T04:40:42;14.10;99.90
18103;DHT22;9178;51.120;6.192;2022-09-01T04:43:10;14.10;99.90
18103;DHT22;9178;51.120;6.192;2022-09-01T04:45:37;14.10;99.90
18103;DHT22;9178;51.120;6.192;2022-09-01T04:48:05;14.00;99.90
18103;DHT22;9178;51.120;6.192;2022-09-01T04:50:32;14.00;99.90
18103;DHT22;9178;51.120;6.192;2022-09-01T04:53:01;14.00;99.90
18103;DHT22;9178;51.120;6.192;2022-09-01T04:55:29;14.00;99.90
18103;DHT22;9178;51.120;6.192;2022-09-01T04:57:57;14.00;99.90
18103;DHT22;9178;51.120;6.192;2022-09-01T05:00:27;14.00;99.90
18103;DHT22;9178;51.120;6.192;2022-09-01T05:02:58;14.00;99.90
18103;DHT22;9178;51.120;6.192;2022-09-01T05:05:35;14.00;99.90
18103;DHT22;9178;51.120;6.192;2022-09-01T05:08:04;13.90;99.90
18103;DHT22;9178;51.120;6.192;2022-09-01T05:10:31;14.00;99.90
18103;DHT22;9178;51.120;6.192;2022-09-01T05:13:02;14.00;99.90
18103;DHT22;9178;51.120;6.192;2022-09-01T05:15:36;14.00;99.90
18103;DHT22;9178;51.120;6.192;2022-09-01T05:18:06;14.00;99.90
18103;DHT22;9178;51.120;6.192;2022-09-01T05:20:36;14.00;99.90
18103;DHT22;9178;51.120;6.192;2022-09-01T05:23:04;14.00;99.90
18103;DHT22;9178;51.120;6.192;2022-09-01T05:25:37;14.00;99.90
18103;DHT22;9178;51.120;6.192;2022-09-01T05:28:05;14.00;99.90
18103;DHT22;9178;51.120;6.192;2022-09-01T05:30:35;14.00;99.90
18103;DHT22;9178;51.120;6.192;2022-09-01T05:33:04;14.00;99.90
18103;DHT22;9178;51.120;6.192;2022-09-01T05:35:35;14.00;99.90
18103;DHT22;9178;51.120;6.192;2022-09-01T05:38:02;14.10;99.90
18103;DHT22;9178;51.120;6.192;2022-09-01T05:40:33;14.00;99.90
18103;DHT22;9178;51.120;6.192;2022-09-01T05:43:06;14.00;99.90
18103;DHT22;9178;51.120;6.192;2022-09-01T05:45:37;14.00;99.90
18103;DHT22;9178;51.120;6.192;2022-09-01T05:48:10;14.10;99.90
18103;DHT22;9178;51.120;6.192;2022-09-01T05:50:42;14.10;99.90
18103;DHT22;9178;51.120;6.192;2022-09-01T05:53:10;14.10;99.90
18103;DHT22;9178;51.120;6.192;2022-09-01T05:55:41;14.10;99.90
18103;DHT22;9178;51.120;6.192;2022-09-01T05:58:09;14.10;99.90
18103;DHT22;9178;51.120;6.192;2022-09-01T06:00:40;14.10;99.90
18103;DHT22;9178;51.120;6.192;2022-09-01T06:03:07;14.20;99.90
18103;DHT22;9178;51.120;6.192;2022-09-01T06:05:35;14.30;99.90
18103;DHT22;9178;51.120;6.192;2022-09-01T06:08:03;14.30;99.90
18103;DHT22;9178;51.120;6.192;2022-09-01T06:10:31;14.40;99.90
18103;DHT22;9178;51.120;6.192;2022-09-01T06:13:02;14.50;99.90
18103;DHT22;9178;51.120;6.192;2022-09-01T06:15:31;14.60;99.90
18103;DHT22;9178;51.120;6.192;2022-09-01T06:17:59;14.70;99.90
18103;DHT22;9178;51.120;6.192;2022-09-01T06:20:26;14.80;99.90
18103;DHT22;9178;51.120;6.192;2022-09-01T06:22:54;14.90;99.90
18103;DHT22;9178;51.120;6.192;2022-09-01T06:25:21;15.00;99.90
18103;DHT22;9178;51.120;6.192;2022-09-01T06:27:48;15.10;99.90
18103;DHT22;9178;51.120;6.192;2022-09-01T06:30:17;15.20;99.90
18103;DHT22;9178;51.120;6.192;2022-09-01T06:32:48;15.20;99.90
18103;DHT22;9178;51.120;6.192;2022-09-01T06:35:18;15.30;99.90
18103;DHT22;9178;51.120;6.192;2022-09-01T06:37:45;15.40;99.90
18103;DHT22;9178;51.120;6.192;2022-09-01T06:40:14;15.40;99.90
18103;DHT22;9178;51.120;6.192;2022-09-01T06:42:44;15.60;99.90
18103;DHT22;9178;51.120;6.192;2022-09-01T06:45:12;15.70;99.90
18103;DHT22;9178;51.120;6.192;2022-09-01T06:47:39;15.70;99.90
18103;DHT22;9178;51.120;6.192;2022-09-01T06:50:07;15.80;99.90
18103;DHT22;9178;51.120;6.192;2022-09-01T06:52:35;15.80;99.90
18103;DHT22;9178;51.120;6.192;2022-09-01T06:55:05;15.90;99.90
18103;DHT22;9178;51.120;6.192;2022-09-01T06:57:32;16.00;99.90
18103;DHT22;9178;51.120;6.192;2022-09-01T07:00:00;16.10;99.90
18103;DHT22;9178;51.120;6.192;2022-09-01T07:02:40;16.20;99.90
18103;DHT22;9178;51.120;6.192;2022-09-01T07:05:07;16.30;99.90
18103;DHT22;9178;51.120;6.192;2022-09-01T07:07:35;16.50;99.90
18103;DHT22;9178;51.120;6.192;2022-09-01T07:10:03;16.50;99.90
18103;DHT22;9178;51.120;6.192;2022-09-01T07:12:30;16.60;99.90
18103;DHT22;9178;51.120;6.192;2022-09-01T07:14:57;16.70;99.90
18103;DHT22;9178;51.120;6.192;2022-09-01T07:17:25;16.80;99.90
18103;DHT22;9178;51.120;6.192;2022-09-01T07:19:55;17.00;99.90
18103;DHT22;9178;51.120;6.192;2022-09-01T07:22:23;17.10;99.90
18103;DHT22;9178;51.120;6.192;2022-09-01T07:24:51;17.30;99.90
18103;DHT22;9178;51.120;6.192;2022-09-01T07:27:21;17.50;99.90
18103;DHT22;9178;51.120;6.192;2022-09-01T07:29:53;17.70;99.90
18103;DHT22;9178;51.120;6.192;2022-09-01T07:32:20;17.90;99.90
18103;DHT22;9178;51.120;6.192;2022-09-01T07:34:47;18.20;99.90
18103;DHT22;9178;51.120;6.192;2022-09-01T07:37:14;18.60;99.90
18103;DHT22;9178;51.120;6.192;2022-09-01T07:39:44;19.10;99.90
18103;DHT22;9178;51.120;6.192;2022-09-01T07:42:12;19.40;99.90
18103;DHT22;9178;51.120;6.192;2022-09-01T07:44:41;19.90;99.90
18103;DHT22;9178;51.120;6.192;2022-09-01T07:47:09;20.20;99.90
18103;DHT22;9178;51.120;6.192;2022-09-01T07:49:39;20.40;99.90
18103;DHT22;9178;51.120;6.192;2022-09-01T07:52:06;20.50;99.90
18103;DHT22;9178;51.120;6.192;2022-09-01T07:54:33;20.50;99.90
18103;DHT22;9178;51.120;6.192;2022-09-01T07:57:02;20.40;99.90
18103;DHT22;9178;51.120;6.192;2022-09-01T07:59:30;20.30;99.90
18103;DHT22;9178;51.120;6.192;2022-09-01T08:01:58;20.30;99.90
18103;DHT22;9178;51.120;6.192;2022-09-01T08:04:25;20.20;99.90
18103;DHT22;9178;51.120;6.192;2022-09-01T08:06:52;20.20;99.90
18103;DHT22;9178;51.120;6.192;2022-09-01T08:09:20;20.10;99.90
18103;DHT22;9178;51.120;6.192;2022-09-01T08:11:49;20.10;99.90
18103;DHT22;9178;51.120;6.192;2022-09-01T08:14:16;20.10;99.90
18103;DHT22;9178;51.120;6.192;2022-09-01T08:16:44;20.10;99.90
18103;DHT22;9178;51.120;6.192;2022-09-01T08:19:11;20.10;99.90
18103;DHT22;9178;51.120;6.192;2022-09-01T08:21:38;20.10;99.90
18103;DHT22;9178;51.120;6.192;2022-09-01T08:24:08;20.10;99.90
18103;DHT22;9178;51.120;6.192;2022-09-01T08:26:35;20.20;99.90
18103;DHT22;9178;51.120;6.192;2022-09-01T08:29:02;20.20;99.90
18103;DHT22;9178;51.120;6.192;2022-09-01T08:31:28;20.20;99.90
18103;DHT22;9178;51.120;6.192;2022-09-01T08:33:57;20.20;99.90
18103;DHT22;9178;51.120;6.192;2022-09-01T08:36:24;20.20;99.90
18103;DHT22;9178;51.120;6.192;2022-09-01T08:38:51;20.20;99.90
18103;DHT22;9178;51.120;6.192;2022-09-01T08:41:28;20.30;99.90
18103;DHT22;9178;51.120;6.192;2022-09-01T08:44:05;20.40;99.90
18103;DHT22;9178;51.120;6.192;2022-09-01T08:46:38;20.40;99.90
18103;DHT22;9178;51.120;6.192;2022-09-01T08:49:13;20.40;99.90
18103;DHT22;9178;51.120;6.192;2022-09-01T08:51:44;20.50;99.90
18103;DHT22;9178;51.120;6.192;2022-09-01T08:54:19;20.50;99.90
18103;DHT22;9178;51.120;6.192;2022-09-01T08:56:51;20.60;99.90
18103;DHT22;9178;51.120;6.192;2022-09-01T08:59:20;20.60;99.90
18103;DHT22;9178;51.120;6.192;2022-09-01T09:01:52;20.60;99.90
18103;DHT22;9178;51.120;6.192;2022-09-01T09:04:33;20.70;99.90
18103;DHT22;9178;51.120;6.192;2022-09-01T09:07:11;20.70;99.90
18103;DHT22;9178;51.120;6.192;2022-09-01T09:09:44;20.70;99.90
18103;DHT22;9178;51.120;6.192;2022-09-01T09:12:50;20.80;99.90
18103;DHT22;9178;51.120;6.192;2022-09-01T09:15:25;20.90;99.90
18103;DHT22;9178;51.120;6.192;2022-09-01T09:17:58;20.90;99.90
18103;DHT22;9178;51.120;6.192;2022-09-01T09:20:31;20.90;99.90
18103;DHT22;9178;51.120;6.192;2022-09-01T09:23:01;20.90;99.90
18103;DHT22;9178;51.120;6.192;2022-09-01T09:25:32;21.00;99.90
18103;DHT22;9178;51.120;6.192;2022-09-01T09:27:59;21.00;99.90
18103;DHT22;9178;51.120;6.192;2022-09-01T09:30:28;21.10;99.90
18103;DHT22;9178;51.120;6.192;2022-09-01T09:32:58;21.10;99.90
18103;DHT22;9178;51.120;6.192;2022-09-01T09:35:32;21.10;99.90
18103;DHT22;9178;51.120;6.192;2022-09-01T09:38:16;21.20;99.90
18103;DHT22;9178;51.120;6.192;2022-09-01T09:40:58;21.20;99.90
18103;DHT22;9178;51.120;6.192;2022-09-01T09:43:26;21.30;99.90
18103;DHT22;9178;51.120;6.192;2022-09-01T09:46:20;21.30;99.90
18103;DHT22;9178;51.120;6.192;2022-09-01T09:48:47;21.30;99.90
18103;DHT22;9178;51.120;6.192;2022-09-01T09:51:19;21.30;99.90
18103;DHT22;9178;51.120;6.192;2022-09-01T09:53:47;21.40;99.90
18103;DHT22;9178;51.120;6.192;2022-09-01T09:56:18;21.40;99.90
18103;DHT22;9178;51.120;6.192;2022-09-01T09:58:47;21.50;99.90
18103;DHT22;9178;51.120;6.192;2022-09-01T10:01:28;21.60;99.90
18103;DHT22;9178;51.120;6.192;2022-09-01T10:03:57;21.70;99.90
18103;DHT22;9178;51.120;6.192;2022-09-01T10:06:32;21.70;99.90
18103;DHT22;9178;51.120;6.192;2022-09-01T10:09:01;21.90;99.90
18103;DHT22;9178;51.120;6.192;2022-09-01T10:11:32;22.00;99.90
18103;DHT22;9178;51.120;6.192;2022-09-01T10:14:04;22.30;99.90
18103;DHT22;9178;51.120;6.192;2022-09-01T10:16:36;22.40;99.90
18103;DHT22;9178;51.120;6.192;2022-09-01T10:19:05;22.60;99.90
18103;DHT22;9178;51.120;6.192;2022-09-01T10:21:37;22.70;99.90
18103;DHT22;9178;51.120;6.192;2022-09-01T10:24:16;22.70;99.90
18103;DHT22;9178;51.120;6.192;2022-09-01T10:26:46;22.80;99.90
18103;DHT22;9178;51.120;6.192;2022-09-01T10:29:18;22.80;99.90
18103;DHT22;9178;51.120;6.192;2022-09-01T10:31:47;22.90;99.90
18103;DHT22;9178;51.120;6.192;2022-09-01T10:34:16;22.80;99.20
18103;DHT22;9178;51.120;6.192;2022-09-01T10:36:46;22.80;98.70
18103;DHT22;9178;51.120;6.192;2022-09-01T10:39:15;22.80;97.10
18103;DHT22;9178;51.120;6.192;2022-09-01T10:41:48;22.90;99.40
18103;DHT22;9178;51.120;6.192;2022-09-01T10:44:21;22.90;97.80
18103;DHT22;9178;51.120;6.192;2022-09-01T10:46:49;22.90;98.70
18103;DHT22;9178;51.120;6.192;2022-09-01T10:55:18;22.80;97.60
18103;DHT22;9178;51.120;6.192;2022-09-01T10:57:52;22.80;95.80
18103;DHT22;9178;51.120;6.192;2022-09-01T11:00:47;22.80;93.80
18103;DHT22;9178;51.120;6.192;2022-09-01T11:06:52;22.80;95.30
18103;DHT22;9178;51.120;6.192;2022-09-01T11:09:24;22.90;94.50
18103;DHT22;9178;51.120;6.192;2022-09-01T11:12:27;23.00;93.80
18103;DHT22;9178;51.120;6.192;2022-09-01T11:14:59;23.00;93.00
18103;DHT22;9178;51.120;6.192;2022-09-01T11:17:28;23.00;93.20
18103;DHT22;9178;51.120;6.192;2022-09-01T11:20:07;23.10;93.30
18103;DHT22;9178;51.120;6.192;2022-09-01T11:22:37;23.20;92.00
18103;DHT22;9178;51.120;6.192;2022-09-01T11:25:39;23.20;90.00
18103;DHT22;9178;51.120;6.192;2022-09-01T11:34:15;23.20;91.90
18103;DHT22;9178;51.120;6.192;2022-09-01T11:36:52;23.30;90.40
18103;DHT22;9178;51.120;6.192;2022-09-01T11:39:35;23.40;90.60
18103;DHT22;9178;51.120;6.192;2022-09-01T11:42:08;23.30;90.60
18103;DHT22;9178;51.120;6.192;2022-09-01T11:44:42;23.30;90.30
18103;DHT22;9178;51.120;6.192;2022-09-01T11:47:17;23.30;86.50
18103;DHT22;9178;51.120;6.192;2022-09-01T11:49:51;23.30;88.70
18103;DHT22;9178;51.120;6.192;2022-09-01T11:52:19;23.30;87.20
18103;DHT22;9178;51.120;6.192;2022-09-01T11:54:47;23.30;86.20
18103;DHT22;9178;51.120;6.192;2022-09-01T11:57:23;23.40;86.10
18103;DHT22;9178;51.120;6.192;2022-09-01T11:59:51;23.40;87.80
18103;DHT22;9178;51.120;6.192;2022-09-01T12:02:21;23.50;87.90
18103;DHT22;9178;51.120;6.192;2022-09-01T12:04:50;23.50;88.40
18103;DHT22;9178;51.120;6.192;2022-09-01T12:07:41;23.50;86.00
18103;DHT22;9178;51.120;6.192;2022-09-01T12:10:14;23.60;84.70
18103;DHT22;9178;51.120;6.192;2022-09-01T12:12:46;23.60;85.00
18103;DHT22;9178;51.120;6.192;2022-09-01T12:15:18;23.50;82.30
18103;DHT22;9178;51.120;6.192;2022-09-01T12:17:47;23.50;80.70
18103;DHT22;9178;51.120;6.192;2022-09-01T12:20:19;23.50;82.10
18103;DHT22;9178;51.120;6.192;2022-09-01T12:22:46;23.50;84.10
18103;DHT22;9178;51.120;6.192;2022-09-01T12:25:19;23.50;82.80
18103;DHT22;9178;51.120;6.192;2022-09-01T12:27:47;23.50;80.20
18103;DHT22;9178;51.120;6.192;2022-09-01T12:30:14;23.50;81.10
18103;DHT22;9178;51.120;6.192;2022-09-01T12:32:41;23.50;82.50
18103;DHT22;9178;51.120;6.192;2022-09-01T12:35:14;23.60;82.50
18103;DHT22;9178;51.120;6.192;2022-09-01T12:37:42;23.60;81.30
18103;DHT22;9178;51.120;6.192;2022-09-01T12:40:22;23.70;82.30
18103;DHT22;9178;51.120;6.192;2022-09-01T12:42:50;23.70;82.50
18103;DHT22;9178;51.120;6.192;2022-09-01T12:45:35;23.70;84.10
18103;DHT22;9178;51.120;6.192;2022-09-01T12:48:03;23.90;85.10
18103;DHT22;9178;51.120;6.192;2022-09-01T12:50:43;24.10;80.30
18103;DHT22;9178;51.120;6.192;2022-09-01T12:53:19;24.20;80.30
18103;DHT22;9178;51.120;6.192;2022-09-01T12:58:40;24.40;84.40
18103;DHT22;9178;51.120;6.192;2022-09-01T13:01:08;24.40;76.90
18103;DHT22;9178;51.120;6.192;2022-09-01T13:04:14;24.30;78.70
18103;DHT22;9178;51.120;6.192;2022-09-01T13:06:42;24.30;75.50
18103;DHT22;9178;51.120;6.192;2022-09-01T13:09:09;24.30;76.10
18103;DHT22;9178;51.120;6.192;2022-09-01T13:11:36;24.40;77.30
18103;DHT22;9178;51.120;6.192;2022-09-01T13:14:03;24.50;77.20
18103;DHT22;9178;51.120;6.192;2022-09-01T13:16:30;24.70;79.80
18103;DHT22;9178;51.120;6.192;2022-09-01T13:18:57;24.70;77.50
18103;DHT22;9178;51.120;6.192;2022-09-01T13:21:23;24.90;78.00
18103;DHT22;9178;51.120;6.192;2022-09-01T13:23:53;25.00;76.00
18103;DHT22;9178;51.120;6.192;2022-09-01T13:26:20;25.10;77.10
18103;DHT22;9178;51.120;6.192;2022-09-01T13:28:47;25.30;76.80
18103;DHT22;9178;51.120;6.192;2022-09-01T13:31:15;25.60;79.50
18103;DHT22;9178;51.120;6.192;2022-09-01T13:33:42;26.40;77.30
18103;DHT22;9178;51.120;6.192;2022-09-01T13:36:08;27.40;77.10
18103;DHT22;9178;51.120;6.192;2022-09-01T13:38:35;28.10;75.40
18103;DHT22;9178;51.120;6.192;2022-09-01T13:41:05;29.00;71.60
18103;DHT22;9178;51.120;6.192;2022-09-01T13:43:36;29.60;71.80
18103;DHT22;9178;51.120;6.192;2022-09-01T13:46:03;30.30;71.60
18103;DHT22;9178;51.120;6.192;2022-09-01T13:48:30;31.20;67.00
18103;DHT22;9178;51.120;6.192;2022-09-01T13:50:59;31.60;65.30
18103;DHT22;9178;51.120;6.192;2022-09-01T13:53:26;32.10;63.20
18103;DHT22;9178;51.120;6.192;2022-09-01T13:55:53;32.50;62.00
18103;DHT22;9178;51.120;6.192;2022-09-01T13:58:21;32.30;59.40
18103;DHT22;9178;51.120;6.192;2022-09-01T14:00:48;32.00;59.30
18103;DHT22;9178;51.120;6.192;2022-09-01T14:03:17;32.10;62.70
18103;DHT22;9178;51.120;6.192;2022-09-01T14:05:46;32.00;58.80
18103;DHT22;9178;51.120;6.192;2022-09-01T14:08:15;32.00;56.00
18103;DHT22;9178;51.120;6.192;2022-09-01T14:10:44;32.20;54.10
18103;DHT22;9178;51.120;6.192;2022-09-01T14:13:11;32.10;54.00
18103;DHT22;9178;51.120;6.192;2022-09-01T14:15:39;32.30;56.20
18103;DHT22;9178;51.120;6.192;2022-09-01T14:18:06;32.50;53.30
18103;DHT22;9178;51.120;6.192;2022-09-01T14:20:35;32.70;54.20
18103;DHT22;9178;51.120;6.192;2022-09-01T14:23:05;32.70;51.20
18103;DHT22;9178;51.120;6.192;2022-09-01T14:25:33;32.60;53.30
18103;DHT22;9178;51.120;6.192;2022-09-01T14:28:00;32.80;52.30
18103;DHT22;9178;51.120;6.192;2022-09-01T14:30:29;32.90;52.00
18103;DHT22;9178;51.120;6.192;2022-09-01T14:32:58;33.00;51.70
18103;DHT22;9178;51.120;6.192;2022-09-01T14:35:25;33.00;50.60
18103;DHT22;9178;51.120;6.192;2022-09-01T14:37:52;32.80;51.10
18103;DHT22;9178;51.120;6.192;2022-09-01T14:40:20;32.80;52.60
18103;DHT22;9178;51.120;6.192;2022-09-01T14:42:50;33.00;52.10
18103;DHT22;9178;51.120;6.192;2022-09-01T14:45:19;33.00;49.60
18103;DHT22;9178;51.120;6.192;2022-09-01T14:47:47;32.90;50.20
18103;DHT22;9178;51.120;6.192;2022-09-01T14:50:16;32.60;49.10
18103;DHT22;9178;51.120;6.192;2022-09-01T14:52:45;32.60;50.00
18103;DHT22;9178;51.120;6.192;2022-09-01T14:55:12;32.70;51.30
18103;DHT22;9178;51.120;6.192;2022-09-01T14:57:40;32.90;50.30
18103;DHT22;9178;51.120;6.192;2022-09-01T15:00:09;32.70;51.30
18103;DHT22;9178;51.120;6.192;2022-09-01T15:02:37;32.70;49.50
18103;DHT22;9178;51.120;6.192;2022-09-01T15:05:05;32.20;49.40
18103;DHT22;9178;51.120;6.192;2022-09-01T15:07:34;32.00;51.40
18103;DHT22;9178;51.120;6.192;2022-09-01T15:10:01;31.70;51.20
18103;DHT22;9178;51.120;6.192;2022-09-01T15:12:28;31.30;51.30
18103;DHT22;9178;51.120;6.192;2022-09-01T15:14:55;30.90;51.00
18103;DHT22;9178;51.120;6.192;2022-09-01T15:17:22;30.60;53.60
18103;DHT22;9178;51.120;6.192;2022-09-01T15:19:49;30.80;54.00
18103;DHT22;9178;51.120;6.192;2022-09-01T15:22:16;30.70;51.40
18103;DHT22;9178;51.120;6.192;2022-09-01T15:24:44;30.30;53.60
18103;DHT22;9178;51.120;6.192;2022-09-01T15:27:11;30.10;53.70
18103;DHT22;9178;51.120;6.192;2022-09-01T15:29:38;30.00;59.00
18103;DHT22;9178;51.120;6.192;2022-09-01T15:32:10;29.90;59.50
18103;DHT22;9178;51.120;6.192;2022-09-01T15:34:37;29.80;58.20
18103;DHT22;9178;51.120;6.192;2022-09-01T15:37:04;29.80;52.90
18103;DHT22;9178;51.120;6.192;2022-09-01T15:39:32;29.80;55.30
18103;DHT22;9178;51.120;6.192;2022-09-01T15:42:00;29.80;52.60
18103;DHT22;9178;51.120;6.192;2022-09-01T15:44:27;29.70;52.20
18103;DHT22;9178;51.120;6.192;2022-09-01T15:46:54;29.60;53.60
18103;DHT22;9178;51.120;6.192;2022-09-01T15:49:22;29.40;53.60
18103;DHT22;9178;51.120;6.192;2022-09-01T15:51:49;29.10;53.60
18103;DHT22;9178;51.120;6.192;2022-09-01T15:54:17;28.80;52.90
18103;DHT22;9178;51.120;6.192;2022-09-01T15:56:45;28.50;54.70
18103;DHT22;9178;51.120;6.192;2022-09-01T15:59:14;28.20;52.50
18103;DHT22;9178;51.120;6.192;2022-09-01T16:01:42;28.00;52.90
18103;DHT22;9178;51.120;6.192;2022-09-01T16:04:14;27.90;54.70
18103;DHT22;9178;51.120;6.192;2022-09-01T16:06:42;27.80;54.50
18103;DHT22;9178;51.120;6.192;2022-09-01T16:09:09;27.80;54.60
18103;DHT22;9178;51.120;6.192;2022-09-01T16:11:38;27.80;54.60
18103;DHT22;9178;51.120;6.192;2022-09-01T16:14:06;27.80;55.10
18103;DHT22;9178;51.120;6.192;2022-09-01T16:16:40;27.70;54.70
18103;DHT22;9178;51.120;6.192;2022-09-01T16:19:20;27.50;54.00
18103;DHT22;9178;51.120;6.192;2022-09-01T16:21:53;27.40;55.50